createdAt,value
2023-01-15T00:00:36.684Z,96786.47
2023-01-15T00:03:09.835Z,96773.72
2023-01-15T00:05:42.977Z,96774.16
2023-01-15T00:08:16.075Z,96774.75
2023-01-15T00:10:49.524Z,96770.03
2023-01-15T00:13:24.307Z,96764.28
2023-01-15T00:16:05.175Z,96769.81
2023-01-15T00:18:39.166Z,96757.34
2023-01-15T00:21:13.972Z,96750.84
2023-01-15T00:24:04.710Z,96744.41
2023-01-15T00:26:56.597Z,96741.94
2023-01-15T00:29:31.094Z,96730.16
2023-01-15T00:32:07.275Z,96723.75
2023-01-15T00:34:40.507Z,96721.78
2023-01-15T00:37:13.673Z,96722.53
2023-01-15T00:39:47.019Z,96715.53
2023-01-15T00:42:20.118Z,96719.03
2023-01-15T00:44:55.445Z,96717.50
2023-01-15T00:47:28.562Z,96711.06
2023-01-15T00:50:01.668Z,96702.41
2023-01-15T00:52:34.822Z,96706.91
2023-01-15T00:55:10.130Z,96708.97
2023-01-15T00:57:43.237Z,96698.44
2023-01-15T01:00:18.649Z,96699.09
2023-01-15T01:02:51.710Z,96683.16
2023-01-15T01:05:24.812Z,96687.34
2023-01-15T01:07:59.208Z,96689.66
2023-01-15T01:10:32.299Z,96689.16
2023-01-15T01:13:05.386Z,96682.22
2023-01-15T01:15:40.360Z,96683.94
2023-01-15T01:18:13.465Z,96677.94
2023-01-15T01:20:46.572Z,96675.97
2023-01-15T01:23:19.914Z,96678.16
2023-01-15T01:25:53.167Z,96660.88
2023-01-15T01:28:26.266Z,96660.50
2023-01-15T01:31:00.723Z,96673.97
2023-01-15T01:33:33.817Z,96668.09
2023-01-15T01:36:07.594Z,96656.91
2023-01-15T01:38:40.716Z,96654.75
2023-01-15T01:41:13.795Z,96652.66
2023-01-15T01:44:00.775Z,96646.22
2023-01-15T01:46:37.295Z,96648.63
2023-01-15T01:49:13.299Z,96644.94
2023-01-15T01:51:51.372Z,96650.00
2023-01-15T01:54:26.937Z,96650.72
2023-01-15T01:57:00.388Z,96648.09
2023-01-15T01:59:34.385Z,96645.53
2023-01-15T02:02:08.982Z,96626.59
2023-01-15T02:04:42.993Z,96630.28
2023-01-15T02:07:16.390Z,96625.25
2023-01-15T02:09:49.478Z,96621.75
2023-01-15T02:12:29.967Z,96608.44
2023-01-15T02:15:14.844Z,96611.50
2023-01-15T02:17:56.918Z,96614.69
2023-01-15T02:20:36.527Z,96606.00
2023-01-15T02:23:28.120Z,96597.25
2023-01-15T02:26:42.335Z,96586.81
2023-01-15T02:29:24.481Z,96582.72
2023-01-15T02:31:58.240Z,96582.72
2023-01-15T02:34:35.137Z,96572.69
2023-01-15T02:37:12.240Z,96568.03
2023-01-15T02:39:48.025Z,96570.88
2023-01-15T02:42:23.226Z,96571.22
2023-01-15T02:45:01.599Z,96569.16
2023-01-15T02:47:37.331Z,96569.00
2023-01-15T02:50:19.210Z,96568.44
2023-01-15T02:52:59.613Z,96547.22
2023-01-15T02:55:37.219Z,96545.72
2023-01-15T02:58:14.806Z,96553.53
2023-01-15T03:00:53.548Z,96554.41
2023-01-15T03:03:36.680Z,96552.13
2023-01-15T03:06:15.250Z,96551.44
2023-01-15T03:08:48.550Z,96549.69
2023-01-15T03:11:21.926Z,96546.47
2023-01-15T03:14:03.369Z,96555.06
2023-01-15T03:16:41.315Z,96539.75
2023-01-15T03:19:23.872Z,96539.84
2023-01-15T03:22:00.866Z,96537.28
2023-01-15T03:24:38.984Z,96539.94
2023-01-15T03:27:12.735Z,96546.66
2023-01-15T03:29:50.374Z,96544.03
2023-01-15T03:32:25.447Z,96538.13
2023-01-15T03:35:00.328Z,96534.72
2023-01-15T03:37:33.822Z,96532.75
2023-01-15T03:40:08.944Z,96531.13
2023-01-15T03:43:12.649Z,96539.53
2023-01-15T03:45:49.696Z,96540.22
2023-01-15T03:48:31.914Z,96541.78
2023-01-15T03:51:12.955Z,96534.16
2023-01-15T03:53:50.724Z,96528.09
2023-01-15T03:56:32.639Z,96530.84
2023-01-15T03:59:11.016Z,96536.19
2023-01-15T04:01:46.720Z,96529.66
2023-01-15T04:04:21.307Z,96532.81
2023-01-15T04:06:56.112Z,96531.44
2023-01-15T04:09:29.318Z,96527.63
2023-01-15T04:12:03.342Z,96518.34
2023-01-15T04:14:36.919Z,96523.56
2023-01-15T04:17:10.665Z,96525.78
2023-01-15T04:19:45.103Z,96531.97
2023-01-15T04:22:18.332Z,96524.13
2023-01-15T04:24:51.362Z,96497.75
2023-01-15T04:27:24.783Z,96502.94
2023-01-15T04:29:57.786Z,96494.38
2023-01-15T04:32:30.809Z,96504.66
2023-01-15T04:35:05.860Z,96499.66
2023-01-15T04:37:38.856Z,96503.84
2023-01-15T04:40:33.098Z,96479.09
2023-01-15T04:43:23.558Z,96473.88
2023-01-15T04:45:56.830Z,96479.00
2023-01-15T04:48:31.465Z,96474.88
2023-01-15T04:51:07.300Z,96470.47
2023-01-15T04:53:40.292Z,96459.50
2023-01-15T04:56:13.290Z,96461.25
2023-01-15T04:58:46.364Z,96463.72
2023-01-15T05:01:19.833Z,96451.88
2023-01-15T05:03:52.932Z,96467.00
2023-01-15T05:06:27.617Z,96464.56
2023-01-15T05:09:00.920Z,96458.41
2023-01-15T05:11:36.577Z,96455.97
2023-01-15T05:14:09.744Z,96443.03
2023-01-15T05:16:42.805Z,96448.28
2023-01-15T05:19:15.923Z,96448.16
2023-01-15T05:21:51.469Z,96449.97
2023-01-15T05:24:24.962Z,96440.56
2023-01-15T05:26:58.248Z,96441.50
2023-01-15T05:29:31.240Z,96442.34
2023-01-15T05:32:04.429Z,96437.22
2023-01-15T05:34:38.120Z,96433.94
2023-01-15T05:37:12.493Z,96432.16
2023-01-15T05:39:45.507Z,96435.50
2023-01-15T05:42:18.579Z,96422.84
2023-01-15T05:44:51.578Z,96443.28
2023-01-15T05:47:24.620Z,96452.75
2023-01-15T05:49:57.680Z,96449.28
2023-01-15T05:52:32.070Z,96446.69
2023-01-15T05:55:05.838Z,96451.53
2023-01-15T05:57:38.859Z,96536.06
2023-01-15T06:00:13.804Z,96547.31
2023-01-15T06:02:50.423Z,96546.25
2023-01-15T06:05:23.484Z,96554.72
2023-01-15T06:07:59.047Z,96546.16
2023-01-15T06:10:33.586Z,96556.63
2023-01-15T06:13:06.674Z,96573.09
2023-01-15T06:15:39.917Z,96583.22
2023-01-15T06:18:13.487Z,96587.50
2023-01-15T06:20:46.504Z,96589.59
2023-01-15T06:23:21.184Z,96596.78
2023-01-15T06:25:54.148Z,96601.75
2023-01-15T06:28:27.203Z,96607.06
2023-01-15T06:31:00.476Z,96606.47
2023-01-15T06:33:33.595Z,96612.19
2023-01-15T06:36:09.552Z,96601.25
2023-01-15T06:38:45.024Z,96612.66
2023-01-15T06:41:38.751Z,96615.06
2023-01-15T06:44:32.042Z,96619.34
2023-01-15T06:47:24.841Z,96630.88
2023-01-15T06:49:59.610Z,96621.25
2023-01-15T06:52:32.604Z,96630.63
2023-01-15T06:55:08.242Z,96633.44
2023-01-15T06:57:41.944Z,96642.50
2023-01-15T07:00:16.397Z,96650.59
2023-01-15T07:02:50.148Z,96653.97
2023-01-15T07:05:23.180Z,96664.94
2023-01-15T07:07:56.242Z,96668.53
2023-01-15T07:10:30.594Z,96675.50
2023-01-15T07:13:03.779Z,96675.66
2023-01-15T07:15:38.986Z,96686.47
2023-01-15T07:18:11.991Z,96689.75
2023-01-15T07:20:44.991Z,96689.09
2023-01-15T07:23:18.100Z,96698.03
2023-01-15T07:25:54.408Z,96700.94
2023-01-15T07:28:27.370Z,96717.13
2023-01-15T07:31:00.620Z,96721.13
2023-01-15T07:33:33.787Z,96737.53
2023-01-15T07:36:07.507Z,96740.44
2023-01-15T07:38:40.500Z,96751.69
2023-01-15T07:41:32.671Z,96761.13
2023-01-15T07:44:23.610Z,96786.25
2023-01-15T07:47:14.328Z,96785.22
2023-01-15T07:49:48.498Z,96821.41
2023-01-15T07:52:23.409Z,96803.16
2023-01-15T07:54:56.393Z,96811.06
2023-01-15T07:57:31.679Z,96823.94
2023-01-15T08:00:06.159Z,96830.91
2023-01-15T08:02:39.216Z,96831.53
2023-01-15T08:05:12.887Z,96840.47
2023-01-15T08:07:46.649Z,96850.78
2023-01-15T08:10:20.652Z,96863.59
2023-01-15T08:13:12.589Z,96871.06
2023-01-15T08:15:45.607Z,96874.56
2023-01-15T08:18:18.621Z,96885.06
2023-01-15T08:20:51.603Z,96878.19
2023-01-15T08:23:24.604Z,96874.56
2023-01-15T08:26:00.859Z,96886.53
2023-01-15T08:28:35.198Z,96893.75
2023-01-15T08:31:09.232Z,96897.97
2023-01-15T08:33:42.258Z,96907.75
2023-01-15T08:36:16.989Z,96902.50
2023-01-15T08:38:50.855Z,96900.03
2023-01-15T08:41:23.849Z,96906.63
2023-01-15T08:43:58.214Z,96903.00
2023-01-15T08:46:31.199Z,96909.50
2023-01-15T08:49:05.861Z,96921.84
2023-01-15T08:51:39.571Z,96921.69
2023-01-15T08:54:13.822Z,96926.84
2023-01-15T08:56:47.041Z,96926.03
2023-01-15T08:59:21.444Z,96942.69
2023-01-15T09:01:54.880Z,96947.44
2023-01-15T09:04:28.488Z,96954.78
2023-01-15T09:07:01.787Z,96957.25
2023-01-15T09:09:35.179Z,96954.94
2023-01-15T09:12:08.970Z,96945.69
2023-01-15T09:14:58.564Z,96965.66
2023-01-15T09:17:40.521Z,96968.97
2023-01-15T09:20:15.394Z,96970.63
2023-01-15T09:22:49.018Z,96971.44
2023-01-15T09:25:24.268Z,96970.38
2023-01-15T09:27:57.725Z,96969.59
2023-01-15T09:30:32.318Z,96969.97
2023-01-15T09:33:05.543Z,96977.41
2023-01-15T09:35:38.645Z,96982.53
2023-01-15T09:38:13.332Z,96991.56
2023-01-15T09:40:51.258Z,96995.59
2023-01-15T09:43:50.121Z,97009.09
2023-01-15T09:46:33.057Z,97009.09
2023-01-15T09:49:22.441Z,97013.19
2023-01-15T09:52:07.331Z,97026.06
2023-01-15T09:54:51.378Z,97043.81
2023-01-15T09:57:26.147Z,97040.25
2023-01-15T10:00:02.608Z,97030.13
2023-01-15T10:02:44.487Z,97033.38
2023-01-15T10:05:23.564Z,97028.84
2023-01-15T10:08:03.430Z,97028.13
2023-01-15T10:10:42.574Z,97035.88
2023-01-15T10:13:30.027Z,97041.94
2023-01-15T10:16:03.490Z,97034.13
2023-01-15T10:18:42.666Z,97032.81
2023-01-15T10:21:30.503Z,97042.09
2023-01-15T10:24:08.164Z,97039.75
2023-01-15T10:26:48.056Z,97042.28
2023-01-15T10:29:27.914Z,97040.38
2023-01-15T10:32:11.701Z,97041.97
2023-01-15T10:35:19.659Z,97044.09
2023-01-15T10:38:00.211Z,97052.34
2023-01-15T10:40:58.658Z,97058.22
2023-01-15T10:43:45.847Z,97060.72
2023-01-15T10:46:21.299Z,97078.22
2023-01-15T10:48:58.882Z,97093.41
2023-01-15T10:51:39.491Z,97088.53
2023-01-15T10:54:23.739Z,97084.38
2023-01-15T10:57:10.129Z,97090.47
2023-01-15T10:59:49.285Z,97090.91
2023-01-15T11:02:29.088Z,97091.59
2023-01-15T11:05:03.633Z,97093.34
2023-01-15T11:08:03.289Z,97089.44
2023-01-15T11:10:36.315Z,97092.72
2023-01-15T11:13:39.597Z,97092.16
2023-01-15T11:16:39.889Z,97094.28
2023-01-15T11:19:39.781Z,97106.59
2023-01-15T11:22:17.276Z,97123.84
2023-01-15T11:24:54.222Z,97124.31
2023-01-15T11:27:29.996Z,97123.75
2023-01-15T11:30:06.780Z,97124.91
2023-01-15T11:32:40.194Z,97133.69
2023-01-15T11:35:18.554Z,97135.03
2023-01-15T11:37:51.686Z,97150.38
2023-01-15T11:40:26.476Z,97150.09
2023-01-15T11:43:17.134Z,97151.34
2023-01-15T11:46:10.408Z,97164.47
2023-01-15T11:49:06.608Z,97160.81
2023-01-15T11:51:44.330Z,97164.34
2023-01-15T11:54:18.506Z,97178.19
2023-01-15T11:56:53.220Z,97180.28
2023-01-15T11:59:27.232Z,97188.53
2023-01-15T12:02:05.226Z,97189.22
2023-01-15T12:04:45.169Z,97194.22
2023-01-15T12:07:19.101Z,97199.19
2023-01-15T12:10:16.684Z,97197.28
2023-01-15T12:13:07.573Z,97202.13
2023-01-15T12:15:51.464Z,97191.00
2023-01-15T12:18:49.533Z,97188.47
2023-01-15T12:21:45.756Z,97201.25
2023-01-15T12:24:42.780Z,97202.34
2023-01-15T12:27:56.946Z,97205.78
2023-01-15T12:30:41.827Z,97206.41
2023-01-15T12:33:27.114Z,97222.97
2023-01-15T12:36:04.804Z,97216.09
2023-01-15T12:38:49.961Z,97218.69
2023-01-15T12:41:48.105Z,97232.53
2023-01-15T12:44:47.931Z,97230.84
2023-01-15T12:47:27.974Z,97215.78
2023-01-15T12:50:08.475Z,97212.59
2023-01-15T12:52:46.359Z,97207.59
2023-01-15T12:55:24.308Z,97213.25
2023-01-15T12:58:01.572Z,97208.88
2023-01-15T13:00:42.606Z,97225.59
2023-01-15T13:03:25.443Z,97206.22
2023-01-15T13:06:02.614Z,97203.81
2023-01-15T13:08:41.628Z,97206.81
2023-01-15T13:11:14.870Z,97218.28
2023-01-15T13:13:58.114Z,97215.34
2023-01-15T13:16:42.062Z,97226.72
2023-01-15T13:19:31.176Z,97230.72
2023-01-15T13:22:12.093Z,97234.00
2023-01-15T13:25:24.857Z,97243.69
2023-01-15T13:28:16.030Z,97246.47
2023-01-15T13:31:04.720Z,97256.09
2023-01-15T13:33:43.932Z,97258.41
2023-01-15T13:36:22.354Z,97257.00
2023-01-15T13:38:59.572Z,97258.06
2023-01-15T13:41:53.131Z,97273.34
2023-01-15T13:44:37.268Z,97283.59
2023-01-15T13:47:14.781Z,97267.94
2023-01-15T13:49:53.302Z,97272.44
2023-01-15T13:52:30.276Z,97272.75
2023-01-15T13:55:12.663Z,97273.41
2023-01-15T13:57:48.770Z,97285.69
2023-01-15T14:00:32.468Z,97294.94
2023-01-15T14:03:27.623Z,97294.28
2023-01-15T14:06:05.026Z,97297.50
2023-01-15T14:08:41.791Z,97293.56
2023-01-15T14:11:38.049Z,97298.03
2023-01-15T14:14:29.702Z,97295.28
2023-01-15T14:17:22.998Z,97309.50
2023-01-15T14:20:23.325Z,97304.31
2023-01-15T14:23:15.534Z,97297.97
2023-01-15T14:26:04.001Z,97308.56
2023-01-15T14:29:02.632Z,97303.44
2023-01-15T14:31:48.216Z,97306.84
2023-01-15T14:34:27.077Z,97310.09
2023-01-15T14:37:04.227Z,97312.78
2023-01-15T14:39:49.410Z,97320.00
2023-01-15T14:42:47.101Z,97311.94
2023-01-15T14:45:27.202Z,97321.53
2023-01-15T14:48:02.221Z,97324.44
2023-01-15T14:50:42.196Z,97314.63
2023-01-15T14:53:44.948Z,97323.94
2023-01-15T14:56:24.403Z,97320.13
2023-01-15T14:59:04.291Z,97312.97
2023-01-15T15:01:45.680Z,97316.97
2023-01-15T15:04:31.269Z,97313.78
2023-01-15T15:07:07.555Z,97314.19
2023-01-15T15:09:44.285Z,97313.78
2023-01-15T15:12:33.188Z,97301.75
2023-01-15T15:15:14.987Z,97302.69
2023-01-15T15:18:00.822Z,97309.25
2023-01-15T15:20:48.084Z,97304.16
2023-01-15T15:23:28.941Z,97303.22
2023-01-15T15:26:04.857Z,97300.91
2023-01-15T15:28:40.205Z,97307.84
2023-01-15T15:31:13.403Z,97295.06
2023-01-15T15:33:47.161Z,97283.28
2023-01-15T15:36:20.479Z,97291.28
2023-01-15T15:38:54.814Z,97294.75
2023-01-15T15:41:50.740Z,97298.66
2023-01-15T15:44:54.903Z,97305.50
2023-01-15T15:47:45.834Z,97311.22
2023-01-15T15:50:24.778Z,97316.53
2023-01-15T15:52:58.490Z,97308.78
2023-01-15T15:55:39.712Z,97307.78
2023-01-15T15:58:24.055Z,97319.91
2023-01-15T16:00:58.660Z,97319.50
2023-01-15T16:03:34.408Z,97327.44
2023-01-15T16:06:10.217Z,97317.91
2023-01-15T16:08:54.376Z,97312.00
2023-01-15T16:11:27.755Z,97308.38
2023-01-15T16:14:04.747Z,97310.31
2023-01-15T16:16:39.460Z,97304.91
2023-01-15T16:19:20.036Z,97302.22
2023-01-15T16:21:54.561Z,97302.06
2023-01-15T16:24:29.164Z,97298.63
2023-01-15T16:27:06.538Z,97299.69
2023-01-15T16:29:39.953Z,97297.34
2023-01-15T16:32:15.473Z,97288.34
2023-01-15T16:34:48.574Z,97281.34
2023-01-15T16:37:30.545Z,97275.53
2023-01-15T16:40:07.253Z,97271.59
2023-01-15T16:42:43.617Z,97262.81
2023-01-15T16:45:25.082Z,97264.47
2023-01-15T16:48:27.470Z,97273.09
2023-01-15T16:51:01.077Z,97270.34
2023-01-15T16:53:41.060Z,97276.47
2023-01-15T16:56:29.514Z,97279.13
2023-01-15T16:59:02.825Z,97269.88
2023-01-15T17:01:42.005Z,97271.88
2023-01-15T17:04:25.680Z,97273.31
2023-01-15T17:07:02.518Z,97279.13
2023-01-15T17:09:39.010Z,97268.97
2023-01-15T17:12:25.933Z,97268.50
2023-01-15T17:15:30.430Z,97270.38
2023-01-15T17:18:23.036Z,97269.66
2023-01-15T17:20:58.254Z,97262.97
2023-01-15T17:23:36.691Z,97255.94
2023-01-15T17:26:18.155Z,97264.72
2023-01-15T17:28:51.702Z,97263.59
2023-01-15T17:31:30.137Z,97260.47
2023-01-15T17:34:04.817Z,97245.25
2023-01-15T17:36:39.409Z,97252.78
2023-01-15T17:39:14.325Z,97259.94
2023-01-15T17:41:47.393Z,97253.19
2023-01-15T17:44:20.542Z,97255.31
2023-01-15T17:46:53.680Z,97249.88
2023-01-15T17:49:26.772Z,97240.44
2023-01-15T17:52:02.296Z,97241.31
2023-01-15T17:54:53.177Z,97237.59
2023-01-15T17:57:43.740Z,97231.28
2023-01-15T18:00:35.604Z,97232.56
2023-01-15T18:03:35.874Z,97228.50
2023-01-15T18:06:13.295Z,97231.72
2023-01-15T18:08:53.426Z,97225.72
2023-01-15T18:11:26.469Z,97218.03
2023-01-15T18:13:59.492Z,97221.34
2023-01-15T18:16:32.683Z,97219.31
2023-01-15T18:19:06.121Z,97219.31
2023-01-15T18:21:40.728Z,97217.44
2023-01-15T18:24:15.369Z,97214.66
2023-01-15T18:26:50.325Z,97217.16
2023-01-15T18:29:23.712Z,97214.31
2023-01-15T18:31:56.773Z,97208.25
2023-01-15T18:34:31.426Z,97208.00
2023-01-15T18:37:04.782Z,97215.09
2023-01-15T18:39:39.210Z,97209.50
2023-01-15T18:42:29.947Z,97207.50
2023-01-15T18:45:20.409Z,97202.19
2023-01-15T18:47:53.442Z,97205.47
2023-01-15T18:50:26.822Z,97198.66
2023-01-15T18:52:59.887Z,97202.19
2023-01-15T18:55:34.256Z,97205.50
2023-01-15T18:58:07.364Z,97206.84
2023-01-15T19:00:40.433Z,97193.63
2023-01-15T19:03:13.542Z,97200.91
2023-01-15T19:05:46.584Z,97196.28
2023-01-15T19:08:19.665Z,97200.28
2023-01-15T19:10:54.078Z,97200.59
2023-01-15T19:13:27.194Z,97210.56
2023-01-15T19:16:17.682Z,97209.06
2023-01-15T19:18:53.581Z,97203.59
2023-01-15T19:21:26.638Z,97206.66
2023-01-15T19:24:00.459Z,97209.94
2023-01-15T19:26:34.992Z,97208.25
2023-01-15T19:29:08.166Z,97203.25
2023-01-15T19:31:41.317Z,97217.41
2023-01-15T19:34:32.995Z,97205.50
2023-01-15T19:37:06.510Z,97194.47
2023-01-15T19:39:39.574Z,97199.50
2023-01-15T19:42:32.639Z,97178.34
2023-01-15T19:45:25.207Z,97177.13
2023-01-15T19:48:16.705Z,97176.66
2023-01-15T19:50:53.706Z,97165.69
2023-01-15T19:53:26.839Z,97167.84
2023-01-15T19:55:59.861Z,97168.94
2023-01-15T19:58:35.370Z,97171.75
2023-01-15T20:01:17.312Z,97165.28
2023-01-15T20:03:50.437Z,97163.19
2023-01-15T20:06:23.527Z,97164.97
2023-01-15T20:08:56.550Z,97154.41
2023-01-15T20:11:49.936Z,97148.28
2023-01-15T20:14:23.410Z,97152.13
2023-01-15T20:16:56.449Z,97153.22
2023-01-15T20:19:29.463Z,97148.72
2023-01-15T20:22:02.488Z,97139.91
2023-01-15T20:24:35.509Z,97135.63
2023-01-15T20:27:08.550Z,97141.56
2023-01-15T20:29:45.763Z,97133.00
2023-01-15T20:32:18.864Z,97137.63
2023-01-15T20:34:51.922Z,97139.81
2023-01-15T20:37:24.999Z,97144.22
2023-01-15T20:39:58.171Z,97140.34
2023-01-15T20:42:48.903Z,97137.97
2023-01-15T20:45:23.558Z,97126.41
2023-01-15T20:48:14.489Z,97122.78
2023-01-15T20:51:00.755Z,97114.09
2023-01-15T20:53:35.378Z,97115.56
2023-01-15T20:56:13.941Z,97123.66
2023-01-15T20:58:47.317Z,97120.06
2023-01-15T21:01:21.782Z,97117.63
2023-01-15T21:03:54.922Z,97114.13
2023-01-15T21:06:28.233Z,97118.19
2023-01-15T21:09:01.267Z,97111.38
2023-01-15T21:11:34.309Z,97110.28
2023-01-15T21:14:07.423Z,97104.47
2023-01-15T21:16:41.906Z,97095.34
2023-01-15T21:19:15.051Z,97097.53
2023-01-15T21:21:48.135Z,97090.94
2023-01-15T21:24:21.173Z,97089.06
2023-01-15T21:26:54.325Z,97082.38
2023-01-15T21:29:27.603Z,97073.16
2023-01-15T21:32:02.018Z,97072.72
2023-01-15T21:34:35.114Z,97064.50
2023-01-15T21:37:08.222Z,97064.50
2023-01-15T21:39:41.630Z,97060.53
2023-01-15T21:42:38.497Z,97053.59
2023-01-15T21:45:12.175Z,97043.94
2023-01-15T21:47:46.579Z,97040.88
2023-01-15T21:50:20.364Z,97034.91
2023-01-15T21:52:53.445Z,97028.81
2023-01-15T21:55:26.478Z,97028.03
2023-01-15T21:58:00.348Z,97021.63
2023-01-15T22:00:33.440Z,97030.78
2023-01-15T22:03:08.154Z,97019.41
2023-01-15T22:05:41.177Z,97010.81
2023-01-15T22:08:14.163Z,97006.34
2023-01-15T22:10:47.195Z,97008.28
2023-01-15T22:13:20.196Z,97004.22
2023-01-15T22:15:55.195Z,96994.13
2023-01-15T22:18:29.592Z,96995.13
2023-01-15T22:21:05.352Z,96995.66
2023-01-15T22:23:38.433Z,96988.44
2023-01-15T22:26:21.918Z,96981.78
2023-01-15T22:28:54.902Z,96982.06
2023-01-15T22:31:29.376Z,96977.72
2023-01-15T22:34:03.759Z,96981.66
2023-01-15T22:36:36.957Z,96967.28
2023-01-15T22:39:10.021Z,96973.78
2023-01-15T22:42:00.841Z,96980.91
2023-01-15T22:44:34.610Z,96972.47
2023-01-15T22:47:07.773Z,96965.31
2023-01-15T22:49:42.117Z,96968.06
2023-01-15T22:52:15.092Z,96966.91
2023-01-15T22:54:48.618Z,96961.50
2023-01-15T22:57:22.552Z,96961.09
2023-01-15T22:59:55.647Z,96955.59
2023-01-15T23:02:42.657Z,96959.56
2023-01-15T23:05:17.277Z,96956.28
2023-01-15T23:07:50.748Z,96940.75
2023-01-15T23:10:23.807Z,96934.34
2023-01-15T23:12:56.775Z,96925.38
2023-01-15T23:15:29.997Z,96918.38
2023-01-15T23:18:03.106Z,96921.91
2023-01-15T23:20:37.438Z,96912.59
2023-01-15T23:23:10.452Z,96912.91
2023-01-15T23:25:43.669Z,96912.47
2023-01-15T23:28:17.800Z,96900.16
2023-01-15T23:30:50.807Z,96889.06
2023-01-15T23:33:24.116Z,96884.13
2023-01-15T23:35:59.339Z,96871.81
2023-01-15T23:38:32.566Z,96878.63
2023-01-15T23:41:08.819Z,96864.59
2023-01-15T23:43:59.422Z,96859.19
2023-01-15T23:46:36.040Z,96854.97
2023-01-15T23:49:12.995Z,96847.50
2023-01-15T23:51:47.331Z,96842.13
2023-01-15T23:54:20.335Z,96844.81
2023-01-15T23:56:53.406Z,96848.88
2023-01-15T23:59:26.998Z,96840.78
